createdAt,value
2023-02-23T00:01:18.700Z,100.00
2023-02-23T00:03:46.070Z,100.00
2023-02-23T00:06:13.640Z,100.00
2023-02-23T00:08:40.535Z,100.00
2023-02-23T00:11:13.524Z,100.00
2023-02-23T00:13:41.478Z,100.00
2023-02-23T00:16:12.589Z,100.00
2023-02-23T00:18:45.152Z,100.00
2023-02-23T00:21:17.068Z,100.00
2023-02-23T00:23:52.065Z,100.00
2023-02-23T00:26:20.865Z,100.00
2023-02-23T00:28:49.087Z,100.00
2023-02-23T00:31:15.490Z,100.00
2023-02-23T00:33:42.512Z,100.00
2023-02-23T00:36:14.742Z,100.00
2023-02-23T00:38:41.987Z,100.00
2023-02-23T00:41:16.544Z,100.00
2023-02-23T00:43:47.424Z,100.00
2023-02-23T00:46:19.214Z,100.00
2023-02-23T00:48:45.930Z,100.00
2023-02-23T00:51:13.315Z,100.00
2023-02-23T00:53:40.208Z,100.00
2023-02-23T00:56:08.528Z,100.00
2023-02-23T00:58:34.904Z,100.00
2023-02-23T01:01:01.455Z,100.00
2023-02-23T01:03:29.304Z,100.00
2023-02-23T01:06:06.427Z,100.00
2023-02-23T01:08:34.512Z,100.00
2023-02-23T01:11:09.645Z,100.00
2023-02-23T01:13:40.331Z,100.00
2023-02-23T01:16:12.959Z,100.00
2023-02-23T01:18:40.635Z,100.00
2023-02-23T01:21:20.697Z,100.00
2023-02-23T01:23:47.681Z,100.00
2023-02-23T01:26:22.897Z,100.00
2023-02-23T01:28:50.926Z,100.00
2023-02-23T01:31:18.670Z,100.00
2023-02-23T01:33:46.009Z,100.00
2023-02-23T01:36:13.308Z,100.00
2023-02-23T01:38:40.957Z,100.00
2023-02-23T01:41:09.082Z,100.00
2023-02-23T01:43:36.970Z,100.00
2023-02-23T01:46:03.799Z,100.00
2023-02-23T01:48:38.594Z,100.00
2023-02-23T01:51:13.088Z,100.00
2023-02-23T01:53:44.174Z,100.00
2023-02-23T01:56:23.234Z,100.00
2023-02-23T01:58:52.862Z,100.00
2023-02-23T02:01:19.828Z,100.00
2023-02-23T02:03:51.365Z,100.00
2023-02-23T02:06:21.580Z,100.00
2023-02-23T02:08:54.555Z,100.00
2023-02-23T02:11:36.075Z,100.00
2023-02-23T02:14:38.574Z,100.00
2023-02-23T02:17:07.845Z,100.00
2023-02-23T02:19:55.715Z,100.00
2023-02-23T02:22:45.685Z,100.00
2023-02-23T02:25:29.380Z,100.00
2023-02-23T02:28:23.647Z,100.00
2023-02-23T02:31:21.059Z,100.00
2023-02-23T02:34:29.121Z,100.00
2023-02-23T02:37:33.064Z,100.00
2023-02-23T02:40:33.154Z,100.00
2023-02-23T02:43:10.075Z,100.00
2023-02-23T02:45:55.147Z,100.00
2023-02-23T02:48:35.865Z,100.00
2023-02-23T02:51:20.165Z,100.00
2023-02-23T02:53:58.160Z,100.00
2023-02-23T02:56:27.090Z,100.00
2023-02-23T02:58:54.690Z,100.00
2023-02-23T03:01:39.739Z,100.00
2023-02-23T03:04:42.747Z,100.00
2023-02-23T03:07:34.148Z,100.00
2023-02-23T03:10:32.023Z,100.00
2023-02-23T03:13:32.324Z,100.00
2023-02-23T03:16:37.971Z,100.00
2023-02-23T03:19:28.934Z,100.00
2023-02-23T03:22:25.800Z,100.00
2023-02-23T03:25:28.246Z,100.00
2023-02-23T03:28:34.534Z,100.00
2023-02-23T03:31:34.569Z,100.00
2023-02-23T03:34:43.956Z,100.00
2023-02-23T03:37:45.763Z,100.00
2023-02-23T03:40:40.783Z,100.00
2023-02-23T03:43:29.542Z,100.00
2023-02-23T03:46:16.473Z,100.00
2023-02-23T03:49:04.892Z,100.00
2023-02-23T03:51:54.172Z,100.00
2023-02-23T03:55:19.769Z,100.00
2023-02-23T03:58:10.074Z,100.00
2023-02-23T04:01:01.795Z,100.00
2023-02-23T04:03:51.060Z,100.00
2023-02-23T04:06:39.737Z,100.00
2023-02-23T04:09:26.630Z,100.00
2023-02-23T04:12:27.859Z,100.00
2023-02-23T04:14:56.910Z,100.00
2023-02-23T04:17:30.507Z,100.00
2023-02-23T04:19:57.131Z,100.00
2023-02-23T04:22:23.953Z,100.00
2023-02-23T04:24:50.840Z,100.00
2023-02-23T04:27:17.441Z,100.00
2023-02-23T04:29:45.027Z,100.00
2023-02-23T04:32:17.467Z,100.00
2023-02-23T04:34:44.819Z,100.00
2023-02-23T04:37:11.304Z,100.00
2023-02-23T04:39:37.723Z,100.00
2023-02-23T04:42:04.837Z,100.00
2023-02-23T04:44:31.254Z,100.00
2023-02-23T04:46:57.920Z,100.00
2023-02-23T04:49:24.444Z,100.00
2023-02-23T04:51:50.844Z,100.00
2023-02-23T04:54:17.416Z,100.00
2023-02-23T04:56:44.179Z,100.00
2023-02-23T04:59:10.587Z,100.00
2023-02-23T05:01:37.343Z,100.00
2023-02-23T05:04:03.907Z,100.00
2023-02-23T05:06:31.832Z,100.00
2023-02-23T05:08:58.231Z,100.00
2023-02-23T05:11:26.482Z,100.00
2023-02-23T05:13:54.182Z,100.00
2023-02-23T05:16:20.730Z,100.00
2023-02-23T05:18:47.606Z,100.00
2023-02-23T05:21:14.173Z,100.00
2023-02-23T05:23:40.625Z,100.00
2023-02-23T05:26:10.376Z,100.00
2023-02-23T05:28:39.319Z,100.00
2023-02-23T05:31:06.296Z,100.00
2023-02-23T05:33:33.925Z,100.00
2023-02-23T05:36:00.834Z,100.00
2023-02-23T05:38:27.364Z,100.00
2023-02-23T05:40:53.740Z,100.00
2023-02-23T05:43:20.146Z,100.00
2023-02-23T05:45:46.518Z,100.00
2023-02-23T05:48:13.324Z,100.00
2023-02-23T05:50:39.847Z,100.00
2023-02-23T05:53:06.252Z,100.00
2023-02-23T05:55:32.736Z,100.00
2023-02-23T05:57:59.172Z,100.00
2023-02-23T06:00:25.695Z,100.00
2023-02-23T06:02:53.749Z,100.00
2023-02-23T06:05:20.278Z,100.00
2023-02-23T06:07:46.864Z,100.00
2023-02-23T06:10:13.963Z,100.00
2023-02-23T06:12:40.471Z,100.00
2023-02-23T06:15:07.312Z,100.00
2023-02-23T06:17:33.727Z,100.00
2023-02-23T06:20:01.906Z,100.00
2023-02-23T06:22:28.250Z,100.00
2023-02-23T06:24:54.615Z,100.00
2023-02-23T06:27:21.233Z,100.00
2023-02-23T06:29:47.725Z,100.00
2023-02-23T06:32:14.253Z,100.00
2023-02-23T06:34:40.759Z,100.00
2023-02-23T06:37:09.184Z,100.00
2023-02-23T06:39:35.723Z,100.00
2023-02-23T06:42:02.158Z,100.00
2023-02-23T06:44:28.554Z,100.00
2023-02-23T06:46:55.062Z,100.00
2023-02-23T06:49:21.579Z,100.00
2023-02-23T06:51:48.055Z,100.00
2023-02-23T06:54:14.446Z,100.00
2023-02-23T06:56:40.837Z,100.00
2023-02-23T06:59:07.211Z,100.00
2023-02-23T07:01:33.636Z,100.00
2023-02-23T07:04:00.114Z,100.00
2023-02-23T07:06:26.633Z,100.00
2023-02-23T07:08:53.096Z,100.00
2023-02-23T07:11:20.290Z,100.00
2023-02-23T07:13:46.928Z,100.00
2023-02-23T07:16:14.881Z,100.00
2023-02-23T07:18:41.382Z,100.00
2023-02-23T07:21:07.949Z,100.00
2023-02-23T07:23:34.397Z,100.00
2023-02-23T07:26:00.860Z,100.00
2023-02-23T07:28:30.359Z,100.00
2023-02-23T07:30:57.840Z,100.00
2023-02-23T07:33:25.238Z,100.00
2023-02-23T07:35:51.762Z,100.00
2023-02-23T07:38:19.188Z,100.00
2023-02-23T07:40:45.670Z,100.00
2023-02-23T07:43:12.032Z,100.00
2023-02-23T07:45:38.731Z,100.00
2023-02-23T07:48:05.413Z,100.00
2023-02-23T07:50:31.762Z,100.00
2023-02-23T07:52:58.460Z,100.00
2023-02-23T07:55:24.921Z,100.00
2023-02-23T07:57:51.437Z,100.00
2023-02-23T08:00:18.344Z,100.00
2023-02-23T08:02:44.908Z,100.00
2023-02-23T08:05:11.377Z,100.00
2023-02-23T08:07:37.961Z,100.00
2023-02-23T08:10:05.062Z,100.00
2023-02-23T08:12:34.054Z,100.00
2023-02-23T08:15:00.515Z,100.00
2023-02-23T08:17:27.453Z,100.00
2023-02-23T08:19:53.923Z,100.00
2023-02-23T08:22:21.301Z,100.00
2023-02-23T08:24:47.969Z,100.00
2023-02-23T08:27:14.384Z,100.00
2023-02-23T08:29:40.776Z,100.00
2023-02-23T08:32:07.341Z,100.00
2023-02-23T08:34:41.127Z,100.00
2023-02-23T08:37:07.819Z,100.00
2023-02-23T08:39:34.613Z,100.00
2023-02-23T08:42:00.993Z,100.00
2023-02-23T08:44:27.673Z,100.00
2023-02-23T08:46:55.366Z,100.00
2023-02-23T08:49:22.688Z,100.00
2023-02-23T08:51:50.132Z,100.00
2023-02-23T08:54:17.250Z,100.00
2023-02-23T08:56:44.453Z,100.00
2023-02-23T08:59:12.445Z,100.00
2023-02-23T09:01:39.604Z,100.00
2023-02-23T09:04:06.273Z,100.00
2023-02-23T09:06:35.090Z,100.00
2023-02-23T09:09:01.869Z,100.00
2023-02-23T09:11:28.375Z,100.00
2023-02-23T09:13:55.520Z,100.00
2023-02-23T09:16:22.008Z,100.00
2023-02-23T09:18:48.781Z,100.00
2023-02-23T09:21:25.074Z,100.00
2023-02-23T09:23:52.811Z,100.00
2023-02-23T09:26:19.904Z,100.00
2023-02-23T09:28:46.757Z,100.00
2023-02-23T09:31:21.301Z,100.00
2023-02-23T09:33:48.311Z,100.00
2023-02-23T09:36:19.030Z,100.00
2023-02-23T09:38:47.645Z,100.00
2023-02-23T09:41:25.994Z,100.00
2023-02-23T09:44:29.480Z,100.00
2023-02-23T09:47:24.348Z,100.00
2023-02-23T09:49:52.032Z,100.00
2023-02-23T09:52:25.467Z,100.00
2023-02-23T09:54:52.209Z,100.00
2023-02-23T09:57:25.685Z,100.00
2023-02-23T09:59:53.148Z,100.00
2023-02-23T10:02:22.271Z,100.00
2023-02-23T10:04:57.601Z,100.00
2023-02-23T10:07:42.356Z,100.00
2023-02-23T10:10:32.303Z,100.00
2023-02-23T10:13:02.012Z,100.00
2023-02-23T10:15:40.818Z,100.00
2023-02-23T10:18:46.222Z,100.00
2023-02-23T10:21:21.561Z,100.00
2023-02-23T10:23:56.980Z,100.00
2023-02-23T10:26:30.653Z,100.00
2023-02-23T10:28:58.610Z,100.00
2023-02-23T10:31:28.578Z,100.00
2023-02-23T10:34:00.669Z,100.00
2023-02-23T10:36:41.579Z,100.00
2023-02-23T10:39:09.359Z,100.00
2023-02-23T10:41:37.882Z,100.00
2023-02-23T10:44:16.962Z,100.00
2023-02-23T10:47:02.936Z,100.00
2023-02-23T10:49:40.393Z,100.00
2023-02-23T10:52:13.749Z,100.00
2023-02-23T10:54:51.274Z,99.96
2023-02-23T10:57:30.184Z,99.97
2023-02-23T11:00:33.285Z,99.84
2023-02-23T11:03:02.876Z,99.59
2023-02-23T11:05:53.264Z,100.00
2023-02-23T11:08:30.445Z,99.89
2023-02-23T11:11:05.563Z,100.00
2023-02-23T11:13:45.505Z,100.00
2023-02-23T11:16:17.307Z,99.41
2023-02-23T11:18:54.539Z,99.53
2023-02-23T11:21:35.824Z,100.00
2023-02-23T11:24:30.639Z,100.00
2023-02-23T11:27:03.640Z,100.00
2023-02-23T11:29:41.062Z,99.90
2023-02-23T11:32:13.788Z,99.76
2023-02-23T11:34:41.019Z,99.49
2023-02-23T11:37:24.338Z,100.00
2023-02-23T11:39:55.786Z,99.89
2023-02-23T11:42:27.168Z,99.55
2023-02-23T11:45:15.455Z,99.30
2023-02-23T11:47:49.146Z,99.12
2023-02-23T11:50:35.514Z,98.80
2023-02-23T11:53:12.428Z,99.75
2023-02-23T11:55:39.430Z,99.47
2023-02-23T11:58:17.410Z,99.85
2023-02-23T12:00:43.888Z,99.56
2023-02-23T12:03:21.906Z,99.61
2023-02-23T12:05:54.019Z,100.00
2023-02-23T12:08:34.410Z,100.00
2023-02-23T12:11:06.288Z,100.00
2023-02-23T12:13:40.600Z,100.00
2023-02-23T12:16:10.143Z,99.10
2023-02-23T12:18:59.267Z,99.33
2023-02-23T12:21:42.093Z,99.39
2023-02-23T12:24:08.463Z,98.21
2023-02-23T12:26:45.287Z,97.30
2023-02-23T12:29:23.927Z,97.05
2023-02-23T12:31:58.593Z,97.11
2023-02-23T12:34:33.848Z,96.94
2023-02-23T12:37:09.159Z,97.14
2023-02-23T12:39:49.175Z,96.81
2023-02-23T12:42:38.104Z,96.35
2023-02-23T12:45:06.831Z,96.24
2023-02-23T12:47:48.818Z,97.07
2023-02-23T12:50:27.718Z,96.19
2023-02-23T12:52:58.649Z,95.98
2023-02-23T12:55:38.361Z,95.66
2023-02-23T12:58:17.112Z,94.38
2023-02-23T13:00:52.973Z,94.48
2023-02-23T13:03:37.692Z,95.36
2023-02-23T13:06:36.917Z,95.23
2023-02-23T13:09:16.378Z,96.05
2023-02-23T13:11:55.163Z,94.85
2023-02-23T13:14:37.340Z,94.68
2023-02-23T13:17:13.664Z,94.21
2023-02-23T13:19:50.159Z,93.21
2023-02-23T13:22:40.777Z,92.81
2023-02-23T13:25:19.906Z,93.96
2023-02-23T13:27:52.731Z,93.89
2023-02-23T13:30:20.711Z,93.76
2023-02-23T13:32:47.405Z,94.60
2023-02-23T13:35:16.547Z,94.58
2023-02-23T13:37:52.905Z,94.93
2023-02-23T13:40:22.279Z,94.58
2023-02-23T13:42:58.717Z,94.20
2023-02-23T13:45:51.875Z,96.16
2023-02-23T13:48:57.958Z,96.43
2023-02-23T13:51:48.049Z,97.10
2023-02-23T13:54:15.009Z,96.24
2023-02-23T13:57:01.352Z,95.79
2023-02-23T13:59:32.974Z,96.05
2023-02-23T14:02:02.539Z,96.40
2023-02-23T14:04:36.392Z,96.29
2023-02-23T14:07:10.988Z,96.68
2023-02-23T14:09:43.110Z,96.19
2023-02-23T14:12:24.698Z,96.13
2023-02-23T14:14:51.278Z,94.70
2023-02-23T14:17:19.064Z,95.00
2023-02-23T14:20:13.275Z,94.69
2023-02-23T14:23:20.006Z,94.63
2023-02-23T14:26:11.635Z,94.94
2023-02-23T14:28:40.414Z,93.90
2023-02-23T14:31:12.888Z,94.56
2023-02-23T14:33:42.447Z,93.98
2023-02-23T14:36:21.124Z,93.86
2023-02-23T14:39:01.434Z,94.73
2023-02-23T14:41:38.249Z,94.92
2023-02-23T14:44:27.177Z,93.97
2023-02-23T14:47:00.212Z,94.84
2023-02-23T14:49:31.071Z,95.35
2023-02-23T14:52:05.039Z,95.74
2023-02-23T14:54:39.306Z,95.63
2023-02-23T14:57:17.675Z,95.64
2023-02-23T14:59:46.335Z,95.65
2023-02-23T15:02:19.532Z,96.75
2023-02-23T15:04:46.373Z,97.13
2023-02-23T15:07:18.883Z,97.48
2023-02-23T15:09:46.968Z,98.04
2023-02-23T15:12:28.546Z,98.43
2023-02-23T15:15:04.292Z,99.09
2023-02-23T15:17:33.509Z,99.47
2023-02-23T15:20:16.577Z,99.80
2023-02-23T15:22:47.226Z,100.00
2023-02-23T15:25:19.833Z,100.00
2023-02-23T15:27:48.129Z,100.00
2023-02-23T15:30:17.748Z,100.00
2023-02-23T15:32:44.298Z,100.00
2023-02-23T15:35:13.155Z,100.00
2023-02-23T15:37:49.542Z,100.00
2023-02-23T15:40:26.439Z,100.00
2023-02-23T15:42:57.591Z,100.00
2023-02-23T15:45:30.373Z,100.00
2023-02-23T15:48:06.429Z,100.00
2023-02-23T15:50:42.619Z,100.00
2023-02-23T15:53:23.982Z,100.00
2023-02-23T15:55:51.558Z,100.00
2023-02-23T15:58:26.329Z,100.00
2023-02-23T16:01:12.893Z,100.00
2023-02-23T16:03:57.504Z,100.00
2023-02-23T16:06:33.212Z,100.00
2023-02-23T16:09:03.675Z,100.00
2023-02-23T16:11:35.887Z,100.00
2023-02-23T16:14:05.736Z,100.00
2023-02-23T16:16:35.431Z,100.00
2023-02-23T16:19:02.672Z,100.00
2023-02-23T16:21:31.721Z,100.00
2023-02-23T16:24:05.479Z,100.00
2023-02-23T16:26:46.279Z,100.00
2023-02-23T16:29:21.148Z,100.00
2023-02-23T16:31:58.190Z,100.00
2023-02-23T16:34:45.087Z,100.00
2023-02-23T16:37:19.222Z,100.00
2023-02-23T16:39:45.911Z,100.00
2023-02-23T16:42:24.043Z,100.00
2023-02-23T16:44:50.611Z,100.00
2023-02-23T16:47:22.736Z,100.00
2023-02-23T16:49:52.646Z,100.00
2023-02-23T16:52:22.785Z,100.00
2023-02-23T16:54:54.513Z,100.00
2023-02-23T16:57:27.040Z,100.00
2023-02-23T16:59:54.852Z,100.00
2023-02-23T17:02:24.087Z,99.61
2023-02-23T17:04:51.994Z,100.00
2023-02-23T17:07:22.381Z,99.66
2023-02-23T17:09:50.239Z,99.49
2023-02-23T17:12:21.457Z,99.10
2023-02-23T17:14:49.319Z,99.50
2023-02-23T17:17:17.853Z,99.46
2023-02-23T17:19:45.445Z,99.03
2023-02-23T17:22:12.502Z,98.68
2023-02-23T17:24:40.537Z,98.17
2023-02-23T17:27:07.021Z,98.30
2023-02-23T17:29:33.480Z,98.38
2023-02-23T17:32:01.333Z,99.32
2023-02-23T17:34:29.353Z,98.52
2023-02-23T17:36:55.790Z,98.57
2023-02-23T17:39:22.455Z,98.18
2023-02-23T17:41:48.876Z,97.36
2023-02-23T17:44:15.324Z,96.57
2023-02-23T17:46:41.829Z,96.34
2023-02-23T17:49:08.446Z,95.81
2023-02-23T17:51:35.025Z,95.90
2023-02-23T17:54:01.418Z,96.20
2023-02-23T17:56:31.074Z,95.93
2023-02-23T17:58:57.441Z,95.50
2023-02-23T18:01:24.350Z,95.26
2023-02-23T18:03:51.014Z,95.36
2023-02-23T18:06:17.973Z,94.92
2023-02-23T18:08:45.337Z,95.05
2023-02-23T18:11:12.297Z,94.70
2023-02-23T18:13:38.825Z,93.72
2023-02-23T18:16:11.471Z,94.32
2023-02-23T18:18:39.834Z,93.44
2023-02-23T18:21:17.830Z,94.15
2023-02-23T18:23:44.626Z,93.74
2023-02-23T18:26:22.600Z,93.12
2023-02-23T18:28:49.408Z,92.77
2023-02-23T18:31:19.771Z,93.56
2023-02-23T18:33:52.516Z,92.59
2023-02-23T18:36:22.927Z,92.67
2023-02-23T18:38:49.741Z,92.43
2023-02-23T18:41:16.927Z,93.05
2023-02-23T18:43:43.434Z,92.63
2023-02-23T18:46:11.454Z,91.20
2023-02-23T18:48:38.793Z,91.18
2023-02-23T18:51:06.832Z,91.19
2023-02-23T18:53:37.235Z,90.60
2023-02-23T18:56:05.873Z,90.16
2023-02-23T18:58:33.254Z,90.04
2023-02-23T19:00:59.978Z,89.93
2023-02-23T19:03:26.528Z,89.90
2023-02-23T19:05:53.135Z,90.02
2023-02-23T19:08:22.858Z,90.85
2023-02-23T19:10:49.684Z,91.24
2023-02-23T19:13:18.195Z,91.33
2023-02-23T19:15:44.680Z,90.85
2023-02-23T19:18:11.108Z,91.09
2023-02-23T19:20:37.509Z,90.27
2023-02-23T19:23:04.975Z,90.60
2023-02-23T19:25:32.569Z,90.49
2023-02-23T19:27:59.509Z,90.69
2023-02-23T19:30:25.957Z,91.45
2023-02-23T19:32:52.577Z,91.54
2023-02-23T19:35:19.303Z,91.00
2023-02-23T19:37:50.932Z,91.21
2023-02-23T19:40:20.463Z,91.10
2023-02-23T19:42:49.419Z,91.12
2023-02-23T19:45:19.336Z,91.42
2023-02-23T19:47:45.882Z,91.16
2023-02-23T19:50:16.118Z,92.13
2023-02-23T19:52:46.906Z,91.68
2023-02-23T19:55:14.749Z,91.16
2023-02-23T19:57:41.941Z,90.80
2023-02-23T20:00:28.773Z,91.37
2023-02-23T20:02:55.743Z,91.45
2023-02-23T20:05:23.679Z,91.64
2023-02-23T20:07:51.669Z,91.88
2023-02-23T20:10:45.553Z,91.99
2023-02-23T20:13:30.820Z,91.81
2023-02-23T20:16:08.324Z,91.95
2023-02-23T20:18:42.092Z,91.88
2023-02-23T20:21:31.789Z,92.40
2023-02-23T20:23:59.866Z,92.78
2023-02-23T20:26:52.928Z,92.70
2023-02-23T20:30:07.799Z,92.43
2023-02-23T20:32:10.441Z,92.83
2023-02-23T20:34:39.214Z,92.37
2023-02-23T20:37:06.014Z,93.45
2023-02-23T20:39:32.437Z,93.16
2023-02-23T20:41:58.988Z,92.96
2023-02-23T20:44:25.471Z,92.87
2023-02-23T20:46:54.202Z,93.22
2023-02-23T20:49:22.723Z,93.77
2023-02-23T20:52:03.947Z,93.72
2023-02-23T20:54:36.689Z,94.21
2023-02-23T20:57:07.728Z,93.72
2023-02-23T20:59:37.323Z,94.38
2023-02-23T21:02:05.006Z,94.38
2023-02-23T21:04:32.143Z,94.67
2023-02-23T21:07:06.755Z,94.15
2023-02-23T21:09:33.389Z,93.76
2023-02-23T21:12:08.142Z,94.19
2023-02-23T21:14:35.582Z,94.38
2023-02-23T21:17:11.664Z,93.67
2023-02-23T21:19:38.967Z,93.49
2023-02-23T21:22:05.489Z,93.46
2023-02-23T21:24:33.932Z,93.78
2023-02-23T21:27:05.320Z,93.15
2023-02-23T21:29:32.055Z,92.82
2023-02-23T21:31:58.561Z,93.06
2023-02-23T21:34:25.112Z,93.22
2023-02-23T21:36:54.630Z,93.08
2023-02-23T21:39:21.580Z,92.92
2023-02-23T21:41:48.039Z,92.83
2023-02-23T21:44:18.843Z,92.87
2023-02-23T21:46:45.378Z,93.17
2023-02-23T21:49:19.109Z,94.01
2023-02-23T21:51:48.022Z,93.62
2023-02-23T21:54:15.674Z,93.99
2023-02-23T21:56:42.298Z,94.06
2023-02-23T21:59:08.766Z,94.37
2023-02-23T22:01:38.147Z,94.11
2023-02-23T22:04:06.983Z,94.01
2023-02-23T22:06:43.992Z,93.21
2023-02-23T22:09:12.741Z,93.23
2023-02-23T22:11:43.471Z,93.21
2023-02-23T22:14:16.418Z,93.59
2023-02-23T22:16:49.862Z,93.77
2023-02-23T22:19:21.471Z,93.89
2023-02-23T22:21:48.546Z,93.52
2023-02-23T22:24:16.910Z,93.49
2023-02-23T22:26:54.815Z,93.70
2023-02-23T22:29:26.167Z,93.92
2023-02-23T22:31:53.227Z,94.29
2023-02-23T22:34:19.970Z,93.41
2023-02-23T22:36:46.747Z,93.62
2023-02-23T22:39:16.297Z,94.74
2023-02-23T22:41:42.865Z,93.62
2023-02-23T22:44:16.516Z,94.11
2023-02-23T22:46:46.552Z,93.48
2023-02-23T22:49:16.117Z,93.21
2023-02-23T22:51:43.948Z,93.73
2023-02-23T22:54:11.608Z,94.45
2023-02-23T22:56:38.348Z,94.52
2023-02-23T22:59:09.167Z,94.08
2023-02-23T23:01:38.749Z,94.54
2023-02-23T23:04:14.850Z,94.74
2023-02-23T23:06:43.172Z,95.26
2023-02-23T23:09:16.180Z,95.02
2023-02-23T23:11:43.077Z,94.78
2023-02-23T23:14:11.502Z,94.88
2023-02-23T23:16:53.300Z,95.30
2023-02-23T23:19:26.059Z,94.74
2023-02-23T23:21:56.030Z,94.71
2023-02-23T23:24:24.143Z,94.93
2023-02-23T23:26:55.596Z,95.42
2023-02-23T23:29:25.711Z,95.14
2023-02-23T23:31:53.212Z,94.94
2023-02-23T23:34:22.546Z,95.08
2023-02-23T23:36:50.195Z,95.10
2023-02-23T23:39:18.584Z,94.84
2023-02-23T23:41:47.992Z,94.82
2023-02-23T23:44:17.170Z,94.34
2023-02-23T23:46:44.969Z,94.76
2023-02-23T23:49:17.805Z,94.37
2023-02-23T23:51:50.398Z,94.67
2023-02-23T23:54:21.465Z,94.99
2023-02-23T23:56:48.534Z,94.58
2023-02-23T23:59:20.368Z,94.35
